createdAt,value
2017-12-23T00:00:37.111Z,13.51
2017-12-23T00:10:33.348Z,13.61
2017-12-23T00:16:24.422Z,13.38
2017-12-23T00:21:29.594Z,13.46
2017-12-23T00:23:09.511Z,13.44
2017-12-23T00:27:52.031Z,13.38
2017-12-23T00:32:14.986Z,13.48
2017-12-23T00:49:10.468Z,13.41
2017-12-23T00:50:02.408Z,13.48
2017-12-23T00:52:59.920Z,13.41
2017-12-23T00:53:54.667Z,13.35
2017-12-23T00:54:43.921Z,13.38
2017-12-23T00:55:32.549Z,13.24
2017-12-23T01:01:15.923Z,13.36
2017-12-23T01:02:57.185Z,13.32
2017-12-23T01:03:57.162Z,13.36
2017-12-23T01:04:48.226Z,13.32
2017-12-23T01:05:53.607Z,13.38
2017-12-23T01:07:49.598Z,13.44
2017-12-23T01:11:49.343Z,13.44
2017-12-23T01:16:39.082Z,13.59
2017-12-23T01:21:52.510Z,13.38
2017-12-23T01:24:37.498Z,13.44
2017-12-23T01:26:45.899Z,13.51
2017-12-23T01:29:58.199Z,13.22
2017-12-23T01:33:34.231Z,13.14
2017-12-23T01:37:57.236Z,13.17
2017-12-23T01:45:44.717Z,13.01
2017-12-23T01:46:26.192Z,13.06
2017-12-23T01:47:10.971Z,13.06
2017-12-23T01:47:51.679Z,13.04
2017-12-23T01:48:38.047Z,13.04
2017-12-23T01:49:18.430Z,13.06
2017-12-23T01:53:01.446Z,12.94
2017-12-23T01:53:58.607Z,12.95
2017-12-23T01:57:15.115Z,12.95
2017-12-23T02:01:27.902Z,12.92
2017-12-23T02:02:18.430Z,12.89
2017-12-23T02:04:48.730Z,12.88
2017-12-23T02:22:57.081Z,12.91
2017-12-23T02:30:28.902Z,12.85
2017-12-23T02:31:23.267Z,12.87
2017-12-23T02:32:58.768Z,12.73
2017-12-23T02:39:23.382Z,12.77
2017-12-23T02:46:32.194Z,12.63
2017-12-23T02:47:09.799Z,12.62
2017-12-23T02:47:50.278Z,12.62
2017-12-23T02:48:31.710Z,12.66
2017-12-23T02:49:11.846Z,12.71
2017-12-23T02:49:53.246Z,12.73
2017-12-23T02:50:34.193Z,12.76
2017-12-23T02:51:16.852Z,12.84
2017-12-23T02:51:57.490Z,12.91
2017-12-23T02:52:38.409Z,12.87
2017-12-23T02:53:18.796Z,12.98
2017-12-23T02:53:59.800Z,12.99
2017-12-23T02:54:40.614Z,12.89
2017-12-23T02:55:20.838Z,12.98
2017-12-23T02:56:01.315Z,12.92
2017-12-23T02:56:42.766Z,12.81
2017-12-23T02:57:23.646Z,12.81
2017-12-23T02:58:03.920Z,12.84
2017-12-23T02:58:44.826Z,12.84
2017-12-23T02:59:25.604Z,12.8
2017-12-23T03:00:07.000Z,12.69
2017-12-23T03:00:48.175Z,12.71
2017-12-23T03:01:29.112Z,12.66
2017-12-23T03:02:09.499Z,12.59
2017-12-23T03:02:49.983Z,12.66
2017-12-23T03:03:32.107Z,12.71
2017-12-23T03:04:12.725Z,12.69
2017-12-23T03:04:53.249Z,12.67
2017-12-23T03:05:33.749Z,12.71
2017-12-23T03:06:14.471Z,12.61
2017-12-23T03:06:54.843Z,12.69
2017-12-23T03:07:35.484Z,12.62
2017-12-23T03:08:17.939Z,12.8
2017-12-23T03:08:59.379Z,12.79
2017-12-23T03:09:39.499Z,12.77
2017-12-23T03:10:19.930Z,12.77
2017-12-23T03:11:04.418Z,12.62
2017-12-23T03:11:45.016Z,12.74
2017-12-23T03:12:26.772Z,12.66
2017-12-23T03:13:07.737Z,12.67
2017-12-23T03:13:49.355Z,12.59
2017-12-23T03:14:31.679Z,12.59
2017-12-23T03:15:12.157Z,12.56
2017-12-23T03:15:52.977Z,12.48
2017-12-23T03:16:33.171Z,12.51
2017-12-23T03:17:13.564Z,12.55
2017-12-23T03:17:54.248Z,12.49
2017-12-23T03:18:35.450Z,12.44
2017-12-23T03:19:15.797Z,12.52
2017-12-23T03:19:59.423Z,12.54
2017-12-23T03:20:39.999Z,12.56
2017-12-23T03:21:22.166Z,12.56
2017-12-23T03:22:02.631Z,12.56
2017-12-23T03:22:44.543Z,12.58
2017-12-23T03:23:27.585Z,12.58
2017-12-23T03:24:09.079Z,12.54
2017-12-23T03:24:49.730Z,12.44
2017-12-23T03:26:42.653Z,12.43
2017-12-23T03:27:26.637Z,12.49
2017-12-23T03:28:08.560Z,12.55
2017-12-23T03:28:48.994Z,12.46
2017-12-23T03:29:29.514Z,12.44
2017-12-23T03:30:12.459Z,12.43
2017-12-23T03:30:54.778Z,12.49
2017-12-23T03:31:35.222Z,12.49
2017-12-23T03:32:16.375Z,12.46
2017-12-23T03:34:16.996Z,12.49
2017-12-23T03:36:09.796Z,12.58
2017-12-23T03:38:19.148Z,12.44
2017-12-23T03:39:11.351Z,12.43
2017-12-23T03:43:34.080Z,12.43
2017-12-23T03:44:23.707Z,12.48
2017-12-23T03:48:55.549Z,12.38
2017-12-23T03:49:47.848Z,12.43
2017-12-23T03:50:39.769Z,12.46
2017-12-23T03:51:51.826Z,12.48
2017-12-23T03:52:56.392Z,12.44
2017-12-23T03:53:51.821Z,12.59
2017-12-23T03:59:53.190Z,12.63
2017-12-23T04:01:53.965Z,12.62
2017-12-23T04:43:34.667Z,11.69
2017-12-23T04:47:51.868Z,11.97
2017-12-23T04:50:55.411Z,11.96
2017-12-23T04:51:45.241Z,11.97
2017-12-23T04:52:37.177Z,11.98
2017-12-23T04:54:43.110Z,12.16
2017-12-23T04:55:40.796Z,12.13
2017-12-23T04:59:14.460Z,12.46
2017-12-23T05:01:26.193Z,12.44
2017-12-23T05:03:33.344Z,12.54
2017-12-23T05:07:02.526Z,12.76
2017-12-23T05:09:41.922Z,12.89
2017-12-23T05:11:40.994Z,12.98
2017-12-23T05:12:32.892Z,12.98
2017-12-23T05:15:30.338Z,12.95
2017-12-23T05:17:30.018Z,12.95
2017-12-23T05:19:28.741Z,12.98
2017-12-23T05:20:21.029Z,13.04
2017-12-23T05:24:12.310Z,13.28
2017-12-23T05:26:17.085Z,13.36
2017-12-23T05:27:09.641Z,13.24
2017-12-23T05:31:30.026Z,13.29
2017-12-23T05:33:05.487Z,13.53
2017-12-23T05:35:04.060Z,13.43
2017-12-23T05:39:24.444Z,13.48
2017-12-23T05:41:33.730Z,13.44
2017-12-23T05:46:11.923Z,13.44
2017-12-23T05:47:04.300Z,13.39
2017-12-23T05:49:03.853Z,13.39
2017-12-23T05:55:33.027Z,13.36
2017-12-23T05:58:27.329Z,13.27
2017-12-23T06:00:06.962Z,13.38
2017-12-23T06:00:58.936Z,13.32
2017-12-23T06:02:55.760Z,13.31
2017-12-23T06:03:50.638Z,13.38
2017-12-23T06:04:46.805Z,13.24
2017-12-23T06:05:40.178Z,13.22
2017-12-23T06:07:19.385Z,13.25
2017-12-23T06:13:06.535Z,13.16
2017-12-23T06:17:09.531Z,12.81
2017-12-23T06:18:03.080Z,12.95
2017-12-23T06:23:10.634Z,12.79
2017-12-23T06:25:52.479Z,12.76
2017-12-23T06:29:38.138Z,12.92
2017-12-23T06:30:36.169Z,12.8
2017-12-23T06:31:39.701Z,12.84
2017-12-23T06:41:35.606Z,12.84
2017-12-23T06:42:28.998Z,12.76
2017-12-23T06:43:19.124Z,12.77
2017-12-23T06:49:27.219Z,12.81
2017-12-23T06:52:40.487Z,12.81
2017-12-23T06:55:32.445Z,12.95
2017-12-23T06:57:10.488Z,12.91
2017-12-23T06:58:46.843Z,12.77
2017-12-23T07:04:53.831Z,12.84
2017-12-23T07:08:44.254Z,12.61
2017-12-23T07:17:05.708Z,12.73
2017-12-23T07:18:41.573Z,12.8
2017-12-23T07:19:24.547Z,12.96
2017-12-23T07:20:07.157Z,12.88
2017-12-23T07:20:48.504Z,12.89
2017-12-23T07:21:30.440Z,12.92
2017-12-23T07:22:10.943Z,12.87
2017-12-23T07:22:53.223Z,12.99
2017-12-23T07:23:37.559Z,12.91
2017-12-23T07:24:19.374Z,12.95
2017-12-23T07:25:00.072Z,12.95
2017-12-23T07:25:41.094Z,13.04
2017-12-23T07:26:24.882Z,13.09
2017-12-23T07:27:07.000Z,13.03
2017-12-23T07:27:49.427Z,12.99
2017-12-23T07:28:29.850Z,12.96
2017-12-23T07:29:13.746Z,13.01
2017-12-23T07:29:56.134Z,12.96
2017-12-23T07:30:36.328Z,13.06
2017-12-23T07:40:17.603Z,12.79
2017-12-23T07:42:14.672Z,12.58
2017-12-23T07:47:05.751Z,12.51
2017-12-23T07:49:36.982Z,12.46
2017-12-23T07:50:33.601Z,12.41
2017-12-23T07:53:43.350Z,12.31
2017-12-23T07:54:36.428Z,12.37
2017-12-23T07:56:34.535Z,12.44
2017-12-23T07:57:27.703Z,12.38
2017-12-23T07:58:19.480Z,12.37
2017-12-23T08:04:27.030Z,12.49
2017-12-23T08:06:44.839Z,12.44
2017-12-23T08:07:35.387Z,12.48
2017-12-23T08:10:58.806Z,12.44
2017-12-23T08:12:29.483Z,12.43
2017-12-23T08:13:09.874Z,12.31
2017-12-23T08:13:51.102Z,12.38
2017-12-23T08:14:31.557Z,12.3
2017-12-23T08:20:19.731Z,12.15
2017-12-23T08:21:00.826Z,12.33
2017-12-23T08:21:44.032Z,12.4
2017-12-23T08:22:24.533Z,12.4
2017-12-23T08:23:04.941Z,12.41
2017-12-23T08:23:45.375Z,12.43
2017-12-23T08:24:25.827Z,12.46
2017-12-23T08:25:06.215Z,12.44
2017-12-23T08:25:47.935Z,12.48
2017-12-23T08:26:28.587Z,12.54
2017-12-23T08:27:09.373Z,12.58
2017-12-23T08:27:49.871Z,12.59
2017-12-23T08:28:32.483Z,12.63
2017-12-23T08:32:07.319Z,12.58
2017-12-23T08:33:44.075Z,12.69
2017-12-23T08:37:15.364Z,12.54
2017-12-23T08:37:55.864Z,12.43
2017-12-23T08:38:36.477Z,12.44
2017-12-23T08:39:17.196Z,12.36
2017-12-23T08:39:57.663Z,12.22
2017-12-23T08:40:39.440Z,12.15
2017-12-23T08:41:20.114Z,12.19
2017-12-23T08:42:00.439Z,12.22
2017-12-23T08:42:41.322Z,12.25
2017-12-23T08:43:30.464Z,12.22
2017-12-23T08:44:10.993Z,12.31
2017-12-23T08:44:52.192Z,12.34
2017-12-23T08:45:33.502Z,12.36
2017-12-23T08:46:13.989Z,12.4
2017-12-23T08:48:17.094Z,12.4
2017-12-23T08:49:08.434Z,12.38
2017-12-23T08:50:01.352Z,12.34
2017-12-23T08:50:48.601Z,12.44
2017-12-23T08:51:28.995Z,12.49
2017-12-23T08:52:09.394Z,12.52
2017-12-23T08:52:49.835Z,12.54
2017-12-23T08:53:30.326Z,12.56
2017-12-23T08:54:10.782Z,12.55
2017-12-23T08:54:51.442Z,12.59
2017-12-23T08:55:31.791Z,12.69
2017-12-23T08:56:12.215Z,12.58
2017-12-23T08:56:52.690Z,12.59
2017-12-23T08:57:34.035Z,12.61
2017-12-23T08:58:14.580Z,12.59
2017-12-23T08:58:54.932Z,12.63
2017-12-23T08:59:35.363Z,12.54
2017-12-23T09:00:15.851Z,12.56
2017-12-23T09:00:56.185Z,12.56
2017-12-23T09:01:36.626Z,12.54
2017-12-23T09:02:17.957Z,12.58
2017-12-23T09:02:58.380Z,12.62
2017-12-23T09:03:38.733Z,12.44
2017-12-23T09:04:19.139Z,12.49
2017-12-23T09:04:59.551Z,12.46
2017-12-23T09:05:39.940Z,12.48
2017-12-23T09:06:20.357Z,12.4
2017-12-23T09:07:00.744Z,12.4
2017-12-23T09:07:41.096Z,12.36
2017-12-23T09:08:21.608Z,12.44
2017-12-23T09:09:02.047Z,12.37
2017-12-23T09:09:42.395Z,12.56
2017-12-23T09:10:22.854Z,12.56
2017-12-23T09:11:03.277Z,12.56
2017-12-23T09:11:43.630Z,12.56
2017-12-23T09:12:24.056Z,12.59
2017-12-23T09:13:04.477Z,12.67
2017-12-23T09:13:44.851Z,12.58
2017-12-23T09:14:25.252Z,12.62
2017-12-23T09:15:05.621Z,12.62
2017-12-23T09:15:45.988Z,12.62
2017-12-23T09:16:26.606Z,12.58
2017-12-23T09:17:06.814Z,12.67
2017-12-23T09:17:47.217Z,12.56
2017-12-23T09:18:27.633Z,12.58
2017-12-23T09:19:08.042Z,12.63
2017-12-23T09:19:48.366Z,12.73
2017-12-23T09:20:28.809Z,12.61
2017-12-23T09:21:09.233Z,12.73
2017-12-23T09:21:49.678Z,12.77
2017-12-23T09:22:30.089Z,12.8
2017-12-23T09:23:10.510Z,12.84
2017-12-23T09:23:50.857Z,12.76
2017-12-23T09:24:31.377Z,12.81
2017-12-23T09:25:11.856Z,12.77
2017-12-23T09:25:52.208Z,12.76
2017-12-23T09:26:32.800Z,12.76
2017-12-23T09:27:13.409Z,12.84
2017-12-23T09:27:53.910Z,12.77
2017-12-23T09:28:34.401Z,12.77
2017-12-23T09:29:14.894Z,12.77
2017-12-23T09:29:55.208Z,12.8
2017-12-23T09:30:35.620Z,12.84
2017-12-23T09:31:16.054Z,12.98
2017-12-23T09:31:56.458Z,12.88
2017-12-23T09:32:36.816Z,12.79
2017-12-23T09:33:17.216Z,12.84
2017-12-23T09:33:57.676Z,12.77
2017-12-23T09:34:38.005Z,12.77
2017-12-23T09:35:18.398Z,12.8
2017-12-23T09:35:58.779Z,12.79
2017-12-23T09:36:39.200Z,12.92
2017-12-23T09:37:19.626Z,12.88
2017-12-23T09:38:00.046Z,12.8
2017-12-23T09:38:40.837Z,12.8
2017-12-23T09:39:21.371Z,12.81
2017-12-23T09:40:01.736Z,12.96
2017-12-23T09:40:42.177Z,12.81
2017-12-23T09:41:23.043Z,12.94
2017-12-23T09:42:04.466Z,12.89
2017-12-23T09:42:45.400Z,13.04
2017-12-23T09:43:27.295Z,12.95
2017-12-23T09:44:08.605Z,12.94
2017-12-23T09:44:49.443Z,12.8
2017-12-23T09:45:29.889Z,12.91
2017-12-23T09:46:12.456Z,12.96
2017-12-23T09:46:53.527Z,12.85
2017-12-23T09:47:33.982Z,12.84
2017-12-23T09:48:17.962Z,12.76
2017-12-23T09:48:57.955Z,12.77
2017-12-23T09:49:38.454Z,12.84
2017-12-23T09:50:18.958Z,12.84
2017-12-23T09:50:59.596Z,12.76
2017-12-23T09:51:41.189Z,12.8
2017-12-23T09:52:20.917Z,12.8
2017-12-23T09:53:02.479Z,12.77
2017-12-23T09:53:42.348Z,12.81
2017-12-23T09:54:22.719Z,12.77
2017-12-23T09:55:03.184Z,12.91
2017-12-23T09:55:43.572Z,12.79
2017-12-23T09:56:25.707Z,12.77
2017-12-23T09:57:06.163Z,12.76
2017-12-23T09:57:46.520Z,12.81
2017-12-23T09:58:27.451Z,12.85
2017-12-23T09:59:07.979Z,12.98
2017-12-23T09:59:48.560Z,12.8
2017-12-23T10:00:29.429Z,12.91
2017-12-23T10:01:09.930Z,12.91
2017-12-23T10:01:52.203Z,12.87
2017-12-23T10:02:36.411Z,12.81
2017-12-23T10:03:16.649Z,12.92
2017-12-23T10:03:58.900Z,12.89
2017-12-23T10:45:41.868Z,12.48
2017-12-23T10:46:37.511Z,12.48
2017-12-23T10:48:13.558Z,12.49
2017-12-23T10:49:46.309Z,12.55
2017-12-23T10:50:27.143Z,12.54
2017-12-23T10:51:08.562Z,12.56
2017-12-23T10:51:49.958Z,12.43
2017-12-23T10:52:30.828Z,12.46
2017-12-23T10:53:11.577Z,12.49
2017-12-23T10:53:54.815Z,12.55
2017-12-23T10:54:37.183Z,12.55
2017-12-23T10:55:17.494Z,12.61
2017-12-23T10:55:59.017Z,12.71
2017-12-23T10:56:40.154Z,12.59
2017-12-23T10:57:22.273Z,12.62
2017-12-23T10:58:02.229Z,12.61
2017-12-23T10:58:42.603Z,12.74
2017-12-23T10:59:23.383Z,12.71
2017-12-23T11:00:03.942Z,12.73
2017-12-23T11:00:45.287Z,12.67
2017-12-23T11:01:28.546Z,12.77
2017-12-23T11:02:08.779Z,12.77
2017-12-23T11:02:50.758Z,12.79
2017-12-23T11:03:31.697Z,12.81
2017-12-23T11:04:12.098Z,12.89
2017-12-23T11:04:54.210Z,12.92
2017-12-23T11:05:36.325Z,12.89
2017-12-23T11:06:17.469Z,12.84
2017-12-23T11:06:58.049Z,12.77
2017-12-23T11:07:38.481Z,12.59
2017-12-23T11:08:18.872Z,12.58
2017-12-23T11:08:59.748Z,12.56
2017-12-23T11:09:41.521Z,12.41
2017-12-23T11:10:22.107Z,12.52
2017-12-23T11:11:03.433Z,12.46
2017-12-23T11:11:44.600Z,12.36
2017-12-23T11:12:24.942Z,12.36
2017-12-23T11:13:04.942Z,12.33
2017-12-23T11:13:46.111Z,12.36
2017-12-23T11:14:26.240Z,12.41
2017-12-23T11:15:06.934Z,12.38
2017-12-23T11:15:48.278Z,12.41
2017-12-23T11:16:28.756Z,12.43
2017-12-23T11:17:10.114Z,12.44
2017-12-23T11:17:50.716Z,12.56
2017-12-23T11:18:31.242Z,12.56
2017-12-23T11:19:12.100Z,12.55
2017-12-23T11:19:53.208Z,12.59
2017-12-23T11:20:34.913Z,12.59
2017-12-23T11:21:15.367Z,12.56
2017-12-23T11:23:18.142Z,12.58
2017-12-23T11:24:07.108Z,12.51
2017-12-23T11:27:07.607Z,12.55
2017-12-23T11:27:52.533Z,12.56
2017-12-23T11:28:31.051Z,12.58
2017-12-23T11:29:11.941Z,12.58
2017-12-23T11:29:52.722Z,12.71
2017-12-23T11:30:33.620Z,12.66
2017-12-23T11:31:14.542Z,12.62
2017-12-23T11:31:55.267Z,12.56
2017-12-23T11:32:35.916Z,12.58
2017-12-23T11:33:16.378Z,12.59
2017-12-23T11:33:57.235Z,12.55
2017-12-23T11:34:38.011Z,12.46
2017-12-23T11:35:20.014Z,12.55
2017-12-23T11:36:02.434Z,12.55
2017-12-23T11:36:43.217Z,12.52
2017-12-23T11:37:24.521Z,12.66
2017-12-23T11:38:05.834Z,12.67
2017-12-23T11:38:46.424Z,12.71
2017-12-23T11:39:26.856Z,12.62
2017-12-23T11:40:07.712Z,12.67
2017-12-23T11:40:49.571Z,12.73
2017-12-23T11:41:30.254Z,12.7
2017-12-23T11:43:48.109Z,12.63
2017-12-23T11:44:40.521Z,12.63
2017-12-23T11:45:30.446Z,12.77
2017-12-23T11:46:09.626Z,12.76
2017-12-23T11:46:51.014Z,12.76
2017-12-23T11:47:31.858Z,12.84
2017-12-23T11:48:13.149Z,12.77
2017-12-23T11:48:53.524Z,12.79
2017-12-23T11:49:34.656Z,12.77
2017-12-23T11:50:15.482Z,12.77
2017-12-23T11:50:56.304Z,12.84
2017-12-23T11:51:37.991Z,12.81
2017-12-23T11:52:19.366Z,12.59
2017-12-23T11:53:00.123Z,12.66
2017-12-23T11:53:41.330Z,12.66
2017-12-23T11:54:24.314Z,12.62
2017-12-23T11:55:04.887Z,12.74
2017-12-23T11:55:45.300Z,12.61
2017-12-23T11:56:27.646Z,12.62
2017-12-23T11:57:08.410Z,12.77
2017-12-23T11:57:49.496Z,12.61
2017-12-23T11:58:30.456Z,12.59
2017-12-23T11:59:11.064Z,12.55
2017-12-23T11:59:51.547Z,12.63
2017-12-23T12:00:33.992Z,12.79
2017-12-23T12:01:17.131Z,12.77
2017-12-23T12:01:58.595Z,12.79
2017-12-23T12:02:40.312Z,12.76
2017-12-23T12:03:21.311Z,12.61
2017-12-23T12:04:04.830Z,12.62
2017-12-23T12:04:45.380Z,12.81
2017-12-23T12:05:27.319Z,12.76
2017-12-23T12:06:09.479Z,12.81
2017-12-23T12:06:50.619Z,12.87
2017-12-23T12:07:31.682Z,12.99
2017-12-23T12:08:12.450Z,12.92
2017-12-23T12:08:54.736Z,12.89
2017-12-23T12:09:35.577Z,12.91
2017-12-23T12:10:17.190Z,12.96
2017-12-23T12:10:58.986Z,12.98
2017-12-23T12:11:39.958Z,12.99
2017-12-23T12:12:20.345Z,13.06
2017-12-23T12:13:01.017Z,13.03
2017-12-23T12:13:42.387Z,12.98
2017-12-23T12:14:22.955Z,12.89
2017-12-23T12:15:03.758Z,12.77
2017-12-23T12:15:45.094Z,12.79
2017-12-23T12:16:26.392Z,12.74
2017-12-23T12:17:07.736Z,12.89
2017-12-23T12:17:48.858Z,12.84
2017-12-23T12:18:29.235Z,12.94
2017-12-23T12:19:10.033Z,12.84
2017-12-23T12:19:50.767Z,12.79
2017-12-23T12:20:31.617Z,12.81
2017-12-23T12:21:12.161Z,12.85
2017-12-23T12:21:53.366Z,12.79
2017-12-23T12:24:43.910Z,12.69
2017-12-23T12:25:23.215Z,12.8
2017-12-23T12:26:04.046Z,12.8
2017-12-23T12:26:44.680Z,12.79
2017-12-23T12:27:25.603Z,12.84
2017-12-23T12:28:07.532Z,12.84
2017-12-23T12:28:48.310Z,12.85
2017-12-23T12:29:29.979Z,12.87
2017-12-23T12:30:10.739Z,12.85
2017-12-23T12:30:51.269Z,12.98
2017-12-23T12:31:32.828Z,12.87
2017-12-23T12:32:13.396Z,12.99
2017-12-23T12:32:55.692Z,13.03
2017-12-23T12:33:38.337Z,12.96
2017-12-23T12:34:21.817Z,12.96
2017-12-23T12:35:02.782Z,13.14
2017-12-23T12:35:44.754Z,13.19
2017-12-23T12:36:25.646Z,13.16
2017-12-23T12:37:05.942Z,13.19
2017-12-23T12:37:47.833Z,13.07
2017-12-23T12:38:28.232Z,13.04
2017-12-23T12:39:08.896Z,13.09
2017-12-23T12:39:49.618Z,13.14
2017-12-23T12:40:30.334Z,13.22
2017-12-23T12:41:11.801Z,13.13
2017-12-23T12:41:52.213Z,13.07
2017-12-23T12:42:33.497Z,12.91
2017-12-23T12:43:14.049Z,12.95
2017-12-23T12:43:54.780Z,12.95
2017-12-23T12:44:36.600Z,12.95
2017-12-23T12:45:18.238Z,12.98
2017-12-23T12:46:02.113Z,12.99
2017-12-23T12:46:43.458Z,13.03
2017-12-23T12:47:24.550Z,12.99
2017-12-23T12:48:08.514Z,13.06
2017-12-23T12:48:47.939Z,13.06
2017-12-23T12:49:28.244Z,13.12
2017-12-23T12:50:08.428Z,13.12
2017-12-23T12:50:48.716Z,13.06
2017-12-23T12:51:29.560Z,13.04
2017-12-23T12:52:10.433Z,12.94
2017-12-23T12:52:51.017Z,12.98
2017-12-23T12:53:32.193Z,13.01
2017-12-23T12:54:12.800Z,12.98
2017-12-23T12:54:53.677Z,12.94
2017-12-23T12:55:35.776Z,12.98
2017-12-23T12:56:16.646Z,12.88
2017-12-23T12:56:57.918Z,12.8
2017-12-23T12:57:37.754Z,12.87
2017-12-23T12:58:18.360Z,12.94
2017-12-23T12:58:58.767Z,13.01
2017-12-23T12:59:40.347Z,12.98
2017-12-23T13:00:23.012Z,13.01
2017-12-23T13:01:04.575Z,13.06
2017-12-23T13:01:45.001Z,13.12
2017-12-23T13:02:25.972Z,13.12
2017-12-23T13:03:07.484Z,13.07
2017-12-23T13:03:48.170Z,13.12
2017-12-23T13:04:28.838Z,13.28
2017-12-23T13:05:09.474Z,13.25
2017-12-23T13:05:51.244Z,13.22
2017-12-23T13:06:31.926Z,13.24
2017-12-23T13:07:12.730Z,13.21
2017-12-23T13:07:55.474Z,13.22
2017-12-23T13:08:37.334Z,13.31
2017-12-23T13:09:18.104Z,13.24
2017-12-23T13:10:00.191Z,13.22
2017-12-23T13:10:41.055Z,13.24
2017-12-23T13:11:22.650Z,13.27
2017-12-23T13:13:00.678Z,13.17
2017-12-23T13:13:44.516Z,13.28
2017-12-23T13:16:28.144Z,13.25
2017-12-23T13:17:08.723Z,13.21
2017-12-23T13:17:49.119Z,13.24
2017-12-23T13:18:29.870Z,13.22
2017-12-23T13:19:10.911Z,13.22
2017-12-23T13:19:52.433Z,13.28
2017-12-23T13:20:32.895Z,13.21
2017-12-23T13:21:13.773Z,13.27
2017-12-23T13:21:54.239Z,13.25
2017-12-23T13:22:35.199Z,13.22
2017-12-23T13:23:16.323Z,13.19
2017-12-23T13:31:06.967Z,13.44
2017-12-23T13:32:43.139Z,13.46
2017-12-23T13:36:33.556Z,13.61
2017-12-23T13:38:58.006Z,13.54
2017-12-23T13:39:44.143Z,13.47
2017-12-23T13:44:09.614Z,13.55
2017-12-23T13:44:59.059Z,13.41
2017-12-23T13:45:48.107Z,13.43
2017-12-23T13:46:37.233Z,13.47
2017-12-23T13:47:27.105Z,13.44
2017-12-23T13:50:57.878Z,13.36
2017-12-23T13:51:43.290Z,13.48
2017-12-23T13:52:21.987Z,13.32
2017-12-23T13:53:03.056Z,13.32
2017-12-23T13:53:43.511Z,13.41
2017-12-23T13:54:24.225Z,13.38
2017-12-23T13:55:06.604Z,13.28
2017-12-23T13:55:47.310Z,13.22
2017-12-23T13:56:28.831Z,13.17
2017-12-23T14:00:01.579Z,13.32
2017-12-23T14:00:48.841Z,13.36
2017-12-23T14:01:28.157Z,13.41
2017-12-23T14:02:10.361Z,13.35
2017-12-23T14:02:51.472Z,13.43
2017-12-23T14:03:32.475Z,13.46
2017-12-23T14:04:13.766Z,13.36
2017-12-23T14:04:55.141Z,13.29
2017-12-23T14:05:36.252Z,13.32
2017-12-23T14:06:16.690Z,13.39
2017-12-23T14:08:10.019Z,13.46
2017-12-23T14:09:01.919Z,13.48
2017-12-23T14:10:54.959Z,13.63
2017-12-23T14:12:52.303Z,13.46
2017-12-23T14:13:34.704Z,13.48
2017-12-23T14:14:15.514Z,13.41
2017-12-23T14:14:58.102Z,13.5
2017-12-23T14:15:38.857Z,13.57
2017-12-23T14:16:19.251Z,13.47
2017-12-23T14:17:03.188Z,13.57
2017-12-23T14:17:46.209Z,13.5
2017-12-23T14:18:26.872Z,13.55
2017-12-23T14:19:09.742Z,13.54
2017-12-23T14:19:49.110Z,13.63
2017-12-23T14:20:29.963Z,13.61
2017-12-23T14:21:10.518Z,13.62
2017-12-23T14:21:52.627Z,13.69
2017-12-23T14:22:33.656Z,13.69
2017-12-23T14:23:13.961Z,13.71
2017-12-23T14:23:59.792Z,13.66
2017-12-23T14:24:40.240Z,13.73
2017-12-23T14:25:21.822Z,13.87
2017-12-23T14:26:03.707Z,13.83
2017-12-23T14:26:45.249Z,13.9
2017-12-23T14:27:25.982Z,13.91
2017-12-23T14:28:06.306Z,13.91
2017-12-23T14:28:48.328Z,13.83
2017-12-23T14:29:30.035Z,13.9
2017-12-23T14:30:10.412Z,13.84
2017-12-23T14:30:50.671Z,13.88
2017-12-23T14:31:31.058Z,13.88
2017-12-23T14:32:12.944Z,13.88
2017-12-23T14:32:55.250Z,13.73
2017-12-23T14:33:37.131Z,13.81
2017-12-23T14:34:19.819Z,13.83
2017-12-23T14:35:00.341Z,13.73
2017-12-23T14:35:42.223Z,13.79
2017-12-23T14:36:25.531Z,13.61
2017-12-23T14:37:06.465Z,13.66
2017-12-23T14:37:46.876Z,13.61
2017-12-23T14:38:30.497Z,13.61
2017-12-23T14:39:12.770Z,13.47
2017-12-23T14:39:53.334Z,13.5
2017-12-23T14:40:35.028Z,13.5
2017-12-23T14:41:15.749Z,13.57
2017-12-23T14:41:59.587Z,13.53
2017-12-23T14:42:40.230Z,13.63
2017-12-23T14:43:22.175Z,13.62
2017-12-23T14:44:02.628Z,13.57
2017-12-23T14:44:44.110Z,13.63
2017-12-23T14:45:25.823Z,13.61
2017-12-23T14:46:07.465Z,13.61
2017-12-23T14:46:49.436Z,13.55
2017-12-23T14:47:31.296Z,13.55
2017-12-23T14:48:13.624Z,13.54
2017-12-23T14:48:53.640Z,13.61
2017-12-23T14:49:35.520Z,13.62
2017-12-23T14:50:16.619Z,13.46
2017-12-23T14:50:59.558Z,13.65
2017-12-23T14:51:42.531Z,13.61
2017-12-23T14:52:23.086Z,13.59
2017-12-23T14:53:04.724Z,13.53
2017-12-23T14:53:46.483Z,13.62
2017-12-23T14:54:26.910Z,13.46
2017-12-23T14:55:08.197Z,13.54
2017-12-23T14:55:49.004Z,13.54
2017-12-23T14:56:30.072Z,13.55
2017-12-23T14:57:10.529Z,13.5
2017-12-23T14:57:53.220Z,13.48
2017-12-23T14:58:34.089Z,13.5
2017-12-23T14:59:14.739Z,13.57
2017-12-23T14:59:55.863Z,13.44
2017-12-23T15:00:37.618Z,13.51
2017-12-23T15:01:17.081Z,13.5
2017-12-23T15:01:58.193Z,13.48
2017-12-23T15:02:39.781Z,13.62
2017-12-23T15:03:19.690Z,13.46
2017-12-23T15:04:00.537Z,13.54
2017-12-23T15:04:41.532Z,13.57
2017-12-23T15:05:21.950Z,13.61
2017-12-23T15:06:03.196Z,13.55
2017-12-23T15:06:43.700Z,13.46
2017-12-23T15:07:24.089Z,13.5
2017-12-23T15:08:05.750Z,13.43
2017-12-23T15:08:46.224Z,13.5
2017-12-23T15:09:26.835Z,13.57
2017-12-23T15:10:08.152Z,13.44
2017-12-23T15:10:50.031Z,13.59
2017-12-23T15:11:30.772Z,13.51
2017-12-23T15:12:11.569Z,13.55
2017-12-23T15:12:51.686Z,13.54
2017-12-23T15:13:32.328Z,13.59
2017-12-23T15:14:14.432Z,13.57
2017-12-23T15:14:55.755Z,13.63
2017-12-23T15:15:35.608Z,13.62
2017-12-23T15:16:16.234Z,13.61
2017-12-23T15:16:57.121Z,13.59
2017-12-23T15:17:37.693Z,13.65
2017-12-23T15:18:18.205Z,13.72
2017-12-23T15:18:59.174Z,13.73
2017-12-23T15:19:39.509Z,13.72
2017-12-23T15:20:20.193Z,13.76
2017-12-23T15:21:00.484Z,13.69
2017-12-23T15:21:40.877Z,13.83
2017-12-23T15:22:22.495Z,13.71
2017-12-23T15:23:04.035Z,13.81
2017-12-23T15:23:44.465Z,13.76
2017-12-23T15:24:25.457Z,13.66
2017-12-23T15:25:05.580Z,13.57
2017-12-23T15:25:47.160Z,13.57
2017-12-23T15:26:28.358Z,13.59
2017-12-23T15:27:08.984Z,13.55
2017-12-23T15:27:50.653Z,13.59
2017-12-23T15:28:31.676Z,13.59
2017-12-23T15:29:12.487Z,13.59
2017-12-23T15:29:53.121Z,13.57
2017-12-23T15:30:34.765Z,13.46
2017-12-23T15:31:15.724Z,13.44
2017-12-23T15:31:55.991Z,13.39
2017-12-23T15:32:36.425Z,13.44
2017-12-23T15:33:16.877Z,13.48
2017-12-23T15:33:58.031Z,13.48
2017-12-23T15:34:39.117Z,13.41
2017-12-23T15:35:20.143Z,13.44
2017-12-23T15:36:01.367Z,13.29
2017-12-23T15:36:42.017Z,13.31
2017-12-23T15:37:23.295Z,13.44
2017-12-23T15:38:03.444Z,13.48
2017-12-23T15:38:44.092Z,13.43
2017-12-23T15:39:24.741Z,13.59
2017-12-23T15:40:05.493Z,13.62
2017-12-23T15:40:48.151Z,13.59
2017-12-23T15:41:28.107Z,13.59
2017-12-23T15:42:09.281Z,13.71
2017-12-23T15:42:49.982Z,13.59
2017-12-23T15:43:31.556Z,13.59
2017-12-23T15:44:11.983Z,13.62
2017-12-23T15:44:52.422Z,13.62
2017-12-23T15:45:35.145Z,13.65
2017-12-23T15:46:13.894Z,13.57
2017-12-23T15:46:54.990Z,13.47
2017-12-23T15:47:35.184Z,13.47
2017-12-23T15:48:15.844Z,13.36
2017-12-23T15:48:58.514Z,13.36
2017-12-23T15:49:39.608Z,13.32
2017-12-23T15:50:19.966Z,13.19
2017-12-23T15:51:00.855Z,13.28
2017-12-23T15:51:41.752Z,13.24
2017-12-23T15:52:22.745Z,13.25
2017-12-23T15:53:03.987Z,13.21
2017-12-23T15:53:44.361Z,13.27
2017-12-23T15:54:25.160Z,13.32
2017-12-23T15:55:05.655Z,13.31
2017-12-23T15:55:46.239Z,13.32
2017-12-23T15:56:27.563Z,13.36
2017-12-23T15:57:07.977Z,13.19
2017-12-23T15:57:48.957Z,13.24
2017-12-23T15:58:30.215Z,13.24
2017-12-23T15:59:11.256Z,13.22
2017-12-23T15:59:53.097Z,13.17
2017-12-23T16:00:33.787Z,13.16
2017-12-23T16:01:14.634Z,13.17
2017-12-23T16:01:55.012Z,12.96
2017-12-23T16:02:36.259Z,12.91
2017-12-23T16:03:17.323Z,12.98
2017-12-23T16:03:57.740Z,12.85
2017-12-23T16:42:26.249Z,12.04
2017-12-23T16:43:16.638Z,12.11
2017-12-23T16:44:01.075Z,12.15
2017-12-23T16:44:41.145Z,12.13
2017-12-23T16:45:21.810Z,12.21
2017-12-23T16:46:04.872Z,12.26
2017-12-23T16:46:45.050Z,12.3
2017-12-23T16:47:25.527Z,12.34
2017-12-23T16:48:06.609Z,12.37